Time;durP1;ratioP1;P1;durP2;ratioP2;P2;SDS_P1;SDS_P2;PMS_P1;PMS_P2;Temp;Humidity;BMP_temperature;BMP_pressure;BME280_temperature;BME280_humidity;BME280_pressure;Samples;Min_cycle;Max_cycle;Signal;HPM_P1;HPM_P2
2022/03/15 00:03:37;;;;;;;60.28;28.15;;;;;;;0.93;49.82;102336.31;18429314;32;20085;-63
2022/03/15 00:13:43;;;;;;;65.25;31.55;;;;;;;1.16;49.82;102322.44;18428592;32;20105;-63
2022/03/15 00:23:46;;;;;;;56.15;29.15;;;;;;;0.91;51.85;102323.34;18428990;32;20092;-63
2022/03/15 00:33:51;;;;;;;63.80;30.17;;;;;;;0.66;52.15;102321.69;18427418;32;20085;-63
2022/03/15 00:43:54;;;;;;;54.37;27.10;;;;;;;0.88;51.03;102317.09;18428233;32;20143;-63
2022/03/15 00:53:59;;;;;;;54.20;27.83;;;;;;;0.67;51.13;102307.13;18435442;32;20115;-63
2022/03/15 01:04:02;;;;;;;71.13;34.43;;;;;;;0.62;50.55;102304.25;18435602;32;20104;-63
2022/03/15 01:14:07;;;;;;;72.97;33.20;;;;;;;0.60;51.93;102305.81;18435171;32;20108;-63
2022/03/15 01:24:10;;;;;;;80.63;35.00;;;;;;;0.52;52.64;102301.81;18436006;32;20390;-63
2022/03/15 01:34:15;;;;;;;74.17;33.87;;;;;;;0.29;52.91;102288.28;18434488;32;20170;-63
2022/03/15 01:44:20;;;;;;;67.57;31.40;;;;;;;0.26;53.51;102286.38;18434274;32;20088;-62
2022/03/15 01:54:25;;;;;;;65.90;31.23;;;;;;;0.50;53.64;102278.56;18433694;32;20443;-63
2022/03/15 02:04:28;;;;;;;67.23;29.23;;;;;;;0.33;54.16;102279.06;18433881;32;20155;-63
2022/03/15 02:14:34;;;;;;;56.97;28.90;;;;;;;0.03;55.16;102264.19;18433640;32;20109;-63
2022/03/15 02:24:39;;;;;;;58.90;28.63;;;;;;;-0.10;54.74;102269.22;18433378;32;20088;-63
2022/03/15 02:34:42;;;;;;;62.07;29.93;;;;;;;-0.34;57.04;102276.97;18433161;32;20101;-63
2022/03/15 02:44:47;;;;;;;52.47;26.73;;;;;;;-0.21;56.06;102282.19;18425289;32;241893;-63
2022/03/15 02:54:50;;;;;;;52.67;26.70;;;;;;;-0.35;56.36;102275.19;18432135;32;20150;-63
2022/03/15 03:04:58;;;;;;;55.77;27.57;;;;;;;-0.55;57.54;102272.03;18432298;32;20103;-63
2022/03/15 03:15:02;;;;;;;52.00;26.97;;;;;;;-0.61;57.27;102295.59;18431438;32;20101;-63
2022/03/15 03:25:10;;;;;;;52.63;26.43;;;;;;;-0.42;57.79;102304.63;18431342;32;20145;-63
2022/03/15 03:35:13;;;;;;;55.57;27.10;;;;;;;-0.48;56.89;102317.87;18430676;32;20094;-63
2022/03/15 03:45:18;;;;;;;59.27;27.33;;;;;;;-0.42;56.57;102299.50;18431250;32;20113;-64
2022/03/15 03:55:21;;;;;;;51.30;27.00;;;;;;;-0.32;56.85;102316.44;18429392;32;20112;-63
2022/03/15 04:05:27;;;;;;;50.20;26.43;;;;;;;-0.75;58.01;102315.06;18429178;32;20143;-63
2022/03/15 04:15:32;;;;;;;52.20;26.97;;;;;;;-0.75;58.19;102315.06;18428538;32;20476;-63
2022/03/15 04:25:37;;;;;;;55.80;27.47;;;;;;;-0.68;58.63;102310.38;18435254;32;20099;-63
2022/03/15 04:35:41;;;;;;;52.63;25.97;;;;;;;-0.76;59.39;102335.47;18436348;32;20125;-63
2022/03/15 04:45:45;;;;;;;51.73;25.47;;;;;;;-0.73;59.67;102334.03;18437122;32;20105;-63
2022/03/15 04:55:48;;;;;;;50.27;26.27;;;;;;;-0.63;58.83;102334.72;18435589;32;20093;-63
2022/03/15 05:05:53;;;;;;;54.37;26.67;;;;;;;-0.82;59.58;102348.72;18435722;32;20093;-63
2022/03/15 05:15:56;;;;;;;55.13;25.93;;;;;;;-0.99;60.41;102348.31;18434802;32;20115;-63
2022/03/15 05:26:01;;;;;;;54.87;26.67;;;;;;;-1.14;61.39;102350.59;18435734;32;20650;-63
2022/03/15 05:36:05;;;;;;;59.10;26.07;;;;;;;-0.93;60.70;102344.44;18434455;32;20144;-63
2022/03/15 05:46:10;;;;;;;48.63;24.40;;;;;;;-0.46;58.48;102344.56;18434280;32;20093;-63
2022/03/15 05:56:13;;;;;;;46.37;25.37;;;;;;;1.22;54.96;102330.56;18421529;32;20135;-63
2022/03/15 06:06:23;;;;;;;45.15;25.62;;;;;;;2.85;51.73;102321.94;18349886;32;20089;-63
2022/03/15 06:16:26;;;;;;;53.78;27.98;;;;;;;3.64;50.17;102311.84;18369654;32;20424;-63
2022/03/15 06:26:31;;;;;;;43.40;23.70;;;;;;;5.65;45.99;102311.16;18368941;32;20089;-64
2022/03/15 06:36:35;;;;;;;40.70;24.80;;;;;;;9.72;37.19;102299.69;18369213;32;20116;-64
2022/03/15 06:46:40;;;;;;;43.63;22.20;;;;;;;12.85;30.97;102287.53;18367794;32;20632;-64
2022/03/15 06:56:43;;;;;;;34.30;21.40;;;;;;;15.78;26.15;102288.56;18367867;32;20107;-65
2022/03/15 07:06:48;;;;;;;32.78;20.52;;;;;;;17.00;23.09;102280.28;18364048;32;20274;-65
2022/03/15 07:16:51;;;;;;;31.20;18.08;;;;;;;13.25;27.78;102283.84;18361575;32;20109;-64
2022/03/15 07:26:55;;;;;;;208.35;27.60;;;;;;;15.23;24.70;102263.59;18361154;32;20077;-64
2022/03/15 07:37:00;;;;;;;30.98;18.75;;;;;;;14.13;24.31;102256.28;18365791;32;20094;-64
2022/03/15 07:47:05;;;;;;;27.80;17.55;;;;;;;13.48;26.25;102278.13;18362350;32;20111;-65
2022/03/15 07:57:09;;;;;;;29.12;18.45;;;;;;;12.67;26.34;102287.16;18376184;32;20103;-64
2022/03/15 08:07:14;;;;;;;23.15;15.13;;;;;;;11.85;27.15;102281.06;18386381;32;20461;-64
2022/03/15 08:17:17;;;;;;;25.30;15.07;;;;;;;12.35;25.40;102273.47;18385923;32;20125;-64
2022/03/15 08:27:22;;;;;;;32.50;16.70;;;;;;;12.44;24.51;102267.53;18383435;32;20678;-64
2022/03/15 08:37:26;;;;;;;24.85;15.85;;;;;;;13.00;24.90;102267.69;18381288;32;20172;-64
2022/03/15 08:47:30;;;;;;;28.80;18.25;;;;;;;13.18;23.24;102256.63;18384890;32;20098;-64
2022/03/15 08:57:34;;;;;;;29.42;16.17;;;;;;;13.18;24.23;102248.75;18380807;32;20155;-64
2022/03/15 09:07:39;;;;;;;27.13;15.77;;;;;;;13.18;24.45;102247.03;18376124;32;20299;-65
2022/03/15 09:17:42;;;;;;;27.55;15.30;;;;;;;13.42;23.16;102224.66;18371253;32;20162;-64
2022/03/15 09:28:01;;;;;;;27.98;15.50;;;;;;;13.63;23.29;102209.25;18370664;32;20107;-64
2022/03/15 09:38:06;;;;;;;25.12;15.70;;;;;;;15.43;21.50;102182.19;18370037;32;20109;-65
2022/03/15 09:48:17;;;;;;;25.12;17.05;;;;;;;20.64;16.05;102155.87;18369852;32;20105;-65
2022/03/15 09:58:22;;;;;;;36.93;30.77;;;;;;;21.98;14.67;102141.84;18369314;32;20145;-65
2022/03/15 10:08:26;;;;;;;22.10;14.68;;;;;;;23.06;14.00;102135.69;18368964;32;20088;-65
2022/03/15 10:18:29;;;;;;;22.58;14.13;;;;;;;21.39;14.62;102117.38;18365895;32;20192;-65
2022/03/15 10:28:36;;;;;;;17.60;10.77;;;;;;;19.66;15.85;102114.84;18364020;32;20094;-65
2022/03/15 10:38:45;;;;;;;17.50;11.73;;;;;;;19.68;15.76;102102.47;18330901;32;20108;-65
2022/03/15 10:48:53;;;;;;;15.43;9.27;;;;;;;20.47;15.41;102081.00;18303751;32;20085;-65
2022/03/15 10:59:00;;;;;;;42.53;22.50;;;;;;;20.18;15.54;102074.37;18342764;32;20450;-65
2022/03/15 11:09:15;;;;;;;19.83;10.25;;;;;;;20.56;15.15;102034.88;18365363;32;20516;-65
2022/03/15 11:19:19;;;;;;;19.62;11.25;;;;;;;19.30;16.07;102013.78;18365188;32;20143;-65
2022/03/15 11:29:23;;;;;;;14.93;9.93;;;;;;;19.42;16.19;101999.50;18364828;32;20117;-65
2022/03/15 11:39:27;;;;;;;19.40;10.63;;;;;;;18.44;16.83;101974.16;18365882;32;20101;-65
2022/03/15 11:49:39;;;;;;;24.08;12.52;;;;;;;18.61;16.75;101959.91;18365270;32;20115;-65
2022/03/15 11:59:46;;;;;;;14.07;8.10;;;;;;;18.37;16.95;101931.06;18364498;32;20097;-65
2022/03/15 12:09:51;;;;;;;16.80;9.20;;;;;;;18.13;17.22;101911.94;18364473;32;20109;-65
2022/03/15 12:19:55;;;;;;;17.20;8.75;;;;;;;18.49;17.92;101889.50;18363005;32;20093;-65
2022/03/15 12:30:00;;;;;;;16.08;10.20;;;;;;;18.24;17.68;101873.94;18363447;32;20085;-65
2022/03/15 12:40:05;;;;;;;18.30;11.15;;;;;;;18.19;18.19;101859.88;18361868;32;20098;-65
2022/03/15 12:50:21;;;;;;;21.17;12.82;;;;;;;18.24;17.58;101829.00;18362633;32;20161;-65
2022/03/15 13:00:26;;;;;;;22.05;8.95;;;;;;;18.51;17.62;101835.72;18367337;32;20450;-65
2022/03/15 13:10:36;;;;;;;14.60;8.00;;;;;;;17.99;18.00;101801.06;18369546;32;20093;-66
2022/03/15 13:20:39;;;;;;;14.60;7.80;;;;;;;18.17;17.74;101796.50;18369442;32;20450;-65
2022/03/15 13:30:45;;;;;;;18.15;7.55;;;;;;;18.74;17.27;101775.50;18369098;32;20141;-65
2022/03/15 13:40:48;;;;;;;15.68;9.25;;;;;;;18.54;18.14;101768.72;18368600;32;20374;-66
2022/03/15 13:50:58;;;;;;;19.55;8.63;;;;;;;18.42;17.93;101754.78;18367714;32;20159;-65
2022/03/15 14:01:06;;;;;;;16.17;7.40;;;;;;;17.96;18.51;101753.53;18364698;32;20097;-65
2022/03/15 14:11:12;;;;;;;13.23;7.85;;;;;;;18.15;19.06;101733.09;18368950;32;20130;-65
2022/03/15 14:21:21;;;;;;;16.42;8.73;;;;;;;18.20;19.28;101718.91;18368276;32;20112;-65
2022/03/15 14:31:37;;;;;;;16.80;7.65;;;;;;;17.78;19.66;101701.78;18367957;32;20089;-65
2022/03/15 14:41:42;;;;;;;12.52;6.85;;;;;;;17.47;20.52;101684.50;18366413;32;20117;-65
2022/03/15 14:51:47;;;;;;;14.98;7.82;;;;;;;17.39;19.66;101674.94;18367211;32;20082;-65
2022/03/15 15:01:51;;;;;;;12.10;7.20;;;;;;;17.48;19.79;101644.03;18350485;32;20125;-65
2022/03/15 15:11:59;;;;;;;15.05;7.12;;;;;;;17.57;19.46;101647.47;18365774;32;20097;-65
2022/03/15 15:22:02;;;;;;;14.80;7.60;;;;;;;17.45;20.15;101645.81;18364577;32;20093;-65
2022/03/15 15:32:08;;;;;;;13.68;7.03;;;;;;;17.17;20.53;101652.28;18364676;32;20102;-65
2022/03/15 15:42:12;;;;;;;12.52;7.20;;;;;;;17.39;20.03;101648.56;18362213;32;20085;-65
2022/03/15 15:52:17;;;;;;;15.75;7.93;;;;;;;17.20;20.54;101652.22;18364064;32;20430;-65
2022/03/15 16:02:20;;;;;;;14.43;7.45;;;;;;;17.29;20.74;101629.28;18363947;32;20160;-65
2022/03/15 16:12:26;;;;;;;62.78;10.75;;;;;;;16.86;21.43;101622.63;18362843;32;20093;-65
2022/03/15 16:22:29;;;;;;;17.35;8.57;;;;;;;16.45;22.07;101615.06;18371729;32;20093;-65
2022/03/15 16:32:34;;;;;;;23.85;8.88;;;;;;;16.45;22.03;101599.25;18370312;32;20437;-65
2022/03/15 16:42:37;;;;;;;22.52;9.68;;;;;;;15.93;22.74;101590.81;18369847;32;20108;-65
2022/03/15 16:52:42;;;;;;;18.67;10.70;;;;;;;15.52;23.61;101582.19;18369508;32;20587;-65
2022/03/15 17:02:45;;;;;;;20.37;10.10;;;;;;;15.07;24.47;101579.66;18369320;32;20112;-65
2022/03/15 17:12:50;;;;;;;17.83;9.75;;;;;;;14.80;24.95;101570.97;18369759;32;20100;-65
2022/03/15 17:22:56;;;;;;;34.83;19.58;;;;;;;14.57;25.27;101557.81;18369061;32;20134;-65
2022/03/15 17:33:01;;;;;;;36.08;18.00;;;;;;;14.19;25.75;101551.66;18368484;32;20340;-65
2022/03/15 17:43:09;;;;;;;32.15;18.60;;;;;;;13.79;27.21;101547.19;18367975;32;20156;-65
2022/03/15 17:53:19;;;;;;;37.60;17.20;;;;;;;13.33;27.75;101521.66;18368124;32;20124;-65
2022/03/15 18:03:27;;;;;;;36.38;14.45;;;;;;;13.43;27.68;101539.16;18367267;32;20119;-65
2022/03/15 18:13:35;;;;;;;27.98;14.43;;;;;;;13.68;27.42;101523.56;18367250;32;20104;-65
2022/03/15 18:23:39;;;;;;;24.00;14.07;;;;;;;13.55;27.38;101524.38;18365305;32;20162;-65
2022/03/15 18:33:45;;;;;;;38.65;25.77;;;;;;;13.31;26.78;101512.91;18366579;32;20111;-64
2022/03/15 18:43:52;;;;;;;41.50;24.20;;;;;;;13.41;26.87;101500.69;18363945;32;20094;-65
2022/03/15 18:53:57;;;;;;;36.92;21.83;;;;;;;13.31;27.22;101492.78;18365635;32;20132;-65
2022/03/15 19:04:02;;;;;;;27.62;13.93;;;;;;;13.32;26.79;101483.19;18366447;32;20139;-65
2022/03/15 19:14:09;;;;;;;21.58;12.50;;;;;;;13.35;26.08;101472.69;18365851;32;20115;-65
2022/03/15 19:24:12;;;;;;;22.60;12.25;;;;;;;13.51;25.52;101463.16;18365138;32;20097;-64
2022/03/15 19:34:18;;;;;;;21.55;11.80;;;;;;;13.38;25.88;101451.75;18365384;32;20431;-65
2022/03/15 19:44:22;;;;;;;21.75;12.57;;;;;;;13.39;25.55;101442.12;18363115;32;20125;-65
2022/03/15 19:54:27;;;;;;;18.17;11.88;;;;;;;13.71;24.90;101433.50;18365610;32;20093;-64
2022/03/15 20:04:30;;;;;;;23.62;10.80;;;;;;;13.70;24.90;101419.47;18361111;32;20124;-64
2022/03/15 20:14:36;;;;;;;30.48;17.65;;;;;;;13.29;25.24;101407.13;18363246;32;20098;-64
2022/03/15 20:24:39;;;;;;;17.50;9.32;;;;;;;12.95;26.29;101370.31;18363686;32;20093;-64
2022/03/15 20:34:48;;;;;;;17.20;10.57;;;;;;;13.05;25.60;101377.34;18362837;32;20350;-64
2022/03/15 20:44:53;;;;;;;21.70;11.32;;;;;;;12.51;26.38;101370.13;18362074;32;20090;-65
2022/03/15 20:54:57;;;;;;;22.42;11.43;;;;;;;12.25;27.05;101352.53;18360150;32;20137;-64
2022/03/15 21:05:06;;;;;;;22.73;10.95;;;;;;;12.09;27.48;101332.37;18239824;32;20118;-65
2022/03/15 21:15:11;;;;;;;24.80;11.45;;;;;;;11.46;29.29;101331.84;18244379;32;20447;-64
2022/03/15 21:25:16;;;;;;;27.15;14.30;;;;;;;11.15;31.30;101331.56;18244702;32;20428;-64
2022/03/15 21:35:21;;;;;;;27.23;14.35;;;;;;;10.80;31.24;101319.84;18243377;32;20235;-64
2022/03/15 21:45:24;;;;;;;27.80;15.25;;;;;;;10.39;32.09;101307.16;18243953;32;20218;-64
2022/03/15 21:55:29;;;;;;;29.23;14.35;;;;;;;10.33;33.47;101307.06;18248170;32;20096;-64
2022/03/15 22:05:34;;;;;;;24.17;12.82;;;;;;;10.13;34.49;101295.47;18369395;32;20151;-64
2022/03/15 22:15:39;;;;;;;25.67;14.02;;;;;;;9.74;36.01;101272.31;18354224;32;20187;-64
2022/03/15 22:25:42;;;;;;;30.33;15.38;;;;;;;9.56;37.02;101252.91;18369550;32;20119;-64
2022/03/15 23:17:07;;;;;;;35.55;20.85;;;;;;;9.70;36.90;101187.97;18368215;32;20112;-64
2022/03/15 23:27:27;;;;;;;30.00;17.40;;;;;;;9.66;37.51;101183.53;18424812;32;20097;-64
2022/03/15 23:37:32;;;;;;;36.40;19.45;;;;;;;9.48;38.63;101151.13;18431249;32;20132;-64
2022/03/15 23:47:36;;;;;;;34.92;18.67;;;;;;;9.22;39.83;101135.13;18431692;32;20400;-64
2022/03/15 23:57:41;;;;;;;29.80;17.85;;;;;;;9.57;37.90;101101.75;18429886;32;20092;-64
